< < Back
Terminal Aerodrome Forecast


Current Version              Previous Versions:   1  2  3  4  5  6  7  8  9  

Terminal Aerodrome Forecast

521
FTUS42 KTAE 262325
TAFTLH
TAF
KTLH 262325Z 2700/2724 VRB04KT P6SM SCT060=

Latest METAR

339
SAUS80 KWBC 271200
MTRTLH
METAR KTLH 271153Z 11005KT 10SM CLR 22/16 A3007 RMK AO2 SLP183 T02170161
10228 20178 51011


USA.gov is the U.S. government's official web portal to all federal, state and local government web resources and services.